KTCS/TCS METAR and TAF weather

Enter ICAO airport designator
Station Type Date Time Source
KTCS METAR 2021/01/22 05:53 UTC NOAA

KTCS 220553Z AUTO 27006KT 10SM BKN070 06/03 A3005 RMK AO2 SLP150 T00560028 10122 20044 51008


Station Type Date Time Source
KTCS Decoded METAR 2021/01/22 05:53 UTC NOAA

TRUTH OR CONSEQUENCES MUNI, NM, United States (KTCS) 33-14N 107-16W 1469M
Jan 22, 2021 - 12:53 AM EST / 2021.01.22 0553 UTC
Wind: from the W (270 degrees) at 7 MPH (6 KT):0
Visibility: 10 mile(s):0
Sky conditions: mostly cloudy
Temperature: 42.1 F (5.6 C)
Dew Point: 37.0 F (2.8 C)
Relative Humidity: 82%
Pressure (altimeter): 30.05 in. Hg (1017 hPa)
Pressure tendency: 0.02 inches (0.8 hPa) higher than three hours ago
ob: KTCS 220553Z AUTO 27006KT 10SM BKN070 06/03 A3005 RMK AO2 SLP150 T00560028 10122 20044 51008
cycle: 6

Station Type Date Time Source
KTCS TAF 2021/01/22 06:22 UTC NOAA

TAF KTCS 220520Z 2206/2306 31005KT P6SM SCT005
FM220800 31004KT 5SM BR BKN005
FM221000 31004KT 1SM BR BKN001
TEMPO 2210/2214 1/2SM FG VV001
FM221600 19010KT P6SM SCT040

Example: see airport list